Terminal Aerodrome Forecast
Issued by NWS Quad Cities IA IL

Home | Current Version | Previous Version | Text Only | Print | Product List | Glossary On
Versions: 1 2 3 4 5 6 7 8 9 10 11 12 13 14 15 16 17 18 19 20
000
FTUS43 KDVN 211740
TAFMLI
TAF
KMLI 211740Z 2118/2218 18018G25KT P6SM SKC
     FM220400 17015G23KT P6SM VCSH OVC040
      TEMPO 2204/2208 3SM TSRA OVC015CB
     FM220800 28010KT 4SM -SHRA OVC015
     FM221700 33013KT P6SM VCSH OVC035=

USA.gov is the U.S. government's official web portal to all federal, state and local government web resources and services.